createdAt,value
2023-01-02T00:00:17.416Z,0.00
2023-01-02T00:01:13.909Z,0.00
2023-01-02T00:02:13.242Z,0.00
2023-01-02T00:03:13.748Z,0.00
2023-01-02T00:04:13.802Z,0.00
2023-01-02T00:05:13.904Z,0.00
2023-01-02T00:06:13.214Z,0.00
2023-01-02T00:07:13.640Z,0.00
2023-01-02T00:08:14.316Z,0.00
2023-01-02T00:09:13.345Z,0.00
2023-01-02T00:10:13.303Z,0.00
2023-01-02T00:11:13.289Z,0.00
2023-01-02T00:12:13.245Z,0.00
2023-01-02T00:13:13.252Z,0.00
2023-01-02T00:14:13.591Z,0.00
2023-01-02T00:15:13.534Z,0.00
2023-01-02T00:16:13.917Z,0.00
2023-01-02T00:17:13.329Z,0.00
2023-01-02T00:18:13.412Z,0.00
2023-01-02T00:19:13.396Z,0.00
2023-01-02T00:20:13.327Z,0.00
2023-01-02T00:21:13.417Z,0.00
2023-01-02T00:22:13.363Z,0.00
2023-01-02T00:23:13.716Z,0.00
2023-01-02T00:24:13.792Z,0.00
2023-01-02T00:25:14.006Z,0.00
2023-01-02T00:26:13.000Z,0.00
2023-01-02T00:27:13.133Z,0.00
2023-01-02T00:28:13.206Z,0.00
2023-01-02T00:29:13.160Z,0.00
2023-01-02T00:30:13.337Z,0.00
2023-01-02T00:31:13.889Z,0.00
2023-01-02T00:32:13.358Z,0.00
2023-01-02T00:33:13.479Z,0.00
2023-01-02T00:34:13.551Z,0.00
2023-01-02T00:35:13.732Z,0.00
2023-01-02T00:36:14.037Z,0.00
2023-01-02T00:37:13.069Z,0.00
2023-01-02T00:38:12.980Z,0.00
2023-01-02T00:39:14.058Z,0.00
2023-01-02T00:40:13.383Z,0.00
2023-01-02T00:41:13.525Z,0.00
2023-01-02T00:42:13.489Z,0.00
2023-01-02T00:43:13.547Z,0.00
2023-01-02T00:44:13.493Z,0.00
2023-01-02T00:45:13.723Z,0.00
2023-01-02T00:46:13.930Z,0.00
2023-01-02T00:47:12.965Z,0.00
2023-01-02T00:48:12.944Z,0.00
2023-01-02T00:49:12.947Z,0.00
2023-01-02T00:50:13.013Z,0.00
2023-01-02T00:51:13.019Z,0.00
2023-01-02T00:52:13.066Z,0.00
2023-01-02T00:53:13.634Z,0.00
2023-01-02T00:54:13.980Z,0.00
2023-01-02T00:55:12.923Z,0.00
2023-01-02T00:56:12.937Z,0.00
2023-01-02T00:57:13.403Z,0.00
2023-01-02T00:58:13.398Z,0.00
2023-01-02T00:59:13.600Z,0.00
2023-01-02T01:00:18.411Z,0.00
2023-01-02T01:01:14.241Z,0.00
2023-01-02T01:02:13.707Z,0.00
2023-01-02T01:03:13.842Z,0.00
2023-01-02T01:04:14.147Z,0.00
2023-01-02T01:05:13.245Z,0.00
2023-01-02T01:06:13.631Z,0.00
2023-01-02T01:07:13.615Z,0.00
2023-01-02T01:08:13.878Z,0.00
2023-01-02T01:09:13.931Z,0.00
2023-01-02T01:10:13.009Z,0.00
2023-01-02T01:11:18.504Z,0.00
2023-01-02T01:12:13.570Z,0.00
2023-01-02T01:13:13.532Z,0.00
2023-01-02T01:14:13.882Z,0.00
2023-01-02T01:15:14.058Z,0.00
2023-01-02T01:16:13.242Z,0.00
2023-01-02T01:17:13.278Z,0.00
2023-01-02T01:18:13.221Z,0.00
2023-01-02T01:19:13.275Z,0.00
2023-01-02T01:20:13.633Z,0.00
2023-01-02T01:21:13.660Z,0.00
2023-01-02T01:22:13.828Z,0.00
2023-01-02T01:23:14.079Z,0.00
2023-01-02T01:24:13.044Z,0.00
2023-01-02T01:25:13.287Z,0.00
2023-01-02T01:26:13.485Z,0.00
2023-01-02T01:27:13.779Z,0.00
2023-01-02T01:28:14.246Z,0.00
2023-01-02T01:29:13.343Z,0.00
2023-01-02T01:30:13.783Z,0.00
2023-01-02T01:31:14.388Z,0.00
2023-01-02T01:32:13.839Z,0.00
2023-01-02T01:33:13.930Z,0.00
2023-01-02T01:34:13.190Z,0.00
2023-01-02T01:35:13.268Z,0.00
2023-01-02T01:36:13.556Z,0.00
2023-01-02T01:37:13.878Z,0.00
2023-01-02T01:38:13.809Z,0.00
2023-01-02T01:39:14.161Z,0.00
2023-01-02T01:40:13.101Z,0.00
2023-01-02T01:41:13.239Z,0.00
2023-01-02T01:42:13.279Z,0.00
2023-01-02T01:43:13.143Z,0.00
2023-01-02T01:44:13.443Z,0.00
2023-01-02T01:45:13.514Z,0.00
2023-01-02T01:46:13.672Z,0.00
2023-01-02T01:47:13.830Z,0.00
2023-01-02T01:48:13.774Z,0.00
2023-01-02T01:49:13.898Z,0.00
2023-01-02T01:50:13.795Z,0.00
2023-01-02T01:51:13.867Z,0.00
2023-01-02T01:52:14.081Z,0.00
2023-01-02T01:53:13.139Z,0.00
2023-01-02T01:54:13.614Z,0.00
2023-01-02T01:55:13.609Z,0.00
2023-01-02T01:56:13.716Z,0.00
2023-01-02T01:57:13.741Z,0.00
2023-01-02T01:58:14.055Z,0.00
2023-01-02T01:59:13.321Z,0.00
2023-01-02T02:00:13.486Z,0.00
2023-01-02T02:01:13.944Z,0.00
2023-01-02T02:02:13.357Z,0.00
2023-01-02T02:03:13.699Z,0.00
2023-01-02T02:04:14.135Z,0.00
2023-01-02T02:05:13.085Z,0.00
2023-01-02T02:06:13.040Z,0.00
2023-01-02T02:07:13.558Z,0.00
2023-01-02T02:08:13.909Z,0.00
2023-01-02T02:09:13.015Z,0.00
2023-01-02T02:10:13.051Z,0.00
2023-01-02T02:11:13.330Z,0.00
2023-01-02T02:12:13.990Z,0.00
2023-01-02T02:13:12.977Z,0.00
2023-01-02T02:14:13.086Z,0.00
2023-01-02T02:15:13.139Z,0.00
2023-01-02T02:16:13.077Z,0.00
2023-01-02T02:17:13.378Z,0.00
2023-01-02T02:18:13.586Z,0.00
2023-01-02T02:19:13.975Z,0.00
2023-01-02T02:20:13.000Z,0.00
2023-01-02T02:21:12.978Z,0.00
2023-01-02T02:22:13.231Z,0.00
2023-01-02T02:23:13.206Z,0.00
2023-01-02T02:24:13.163Z,0.00
2023-01-02T02:25:13.314Z,0.00
2023-01-02T02:26:13.297Z,0.00
2023-01-02T02:27:13.738Z,0.00
2023-01-02T02:28:13.902Z,0.00
2023-01-02T02:29:12.943Z,0.00
2023-01-02T02:30:13.850Z,0.00
2023-01-02T02:31:13.856Z,0.00
2023-01-02T02:32:13.749Z,0.00
2023-01-02T02:33:13.715Z,0.00
2023-01-02T02:34:14.075Z,0.00
2023-01-02T02:35:12.958Z,0.00
2023-01-02T02:36:13.769Z,0.00
2023-01-02T02:37:13.858Z,0.00
2023-01-02T02:38:13.813Z,0.00
2023-01-02T02:39:13.932Z,0.00
2023-01-02T02:40:12.781Z,0.00
2023-01-02T02:41:13.826Z,0.00
2023-01-02T02:42:14.093Z,0.00
2023-01-02T02:43:12.965Z,0.00
2023-01-02T02:44:12.808Z,0.00
2023-01-02T02:45:13.978Z,0.00
2023-01-02T02:46:13.055Z,0.00
2023-01-02T02:47:13.166Z,0.00
2023-01-02T02:48:13.111Z,0.00
2023-01-02T02:49:13.267Z,0.00
2023-01-02T02:50:13.345Z,0.00
2023-01-02T02:51:13.285Z,0.00
2023-01-02T02:52:13.318Z,0.00
2023-01-02T02:53:13.186Z,0.00
2023-01-02T02:54:13.141Z,0.00
2023-01-02T02:55:13.176Z,0.00
2023-01-02T02:56:13.238Z,0.00
2023-01-02T02:57:13.350Z,0.00
2023-01-02T02:58:13.773Z,0.00
2023-01-02T02:59:13.700Z,0.00
2023-01-02T03:00:13.884Z,0.00
2023-01-02T03:01:12.972Z,0.00
2023-01-02T03:02:13.359Z,0.00
2023-01-02T03:03:13.577Z,0.00
2023-01-02T03:04:13.691Z,0.00
2023-01-02T03:05:13.776Z,0.00
2023-01-02T03:06:14.220Z,0.00
2023-01-02T03:07:13.532Z,0.00
2023-01-02T03:08:13.866Z,0.00
2023-01-02T03:09:13.051Z,0.00
2023-01-02T03:10:13.089Z,0.00
2023-01-02T03:11:13.331Z,0.00
2023-01-02T03:12:13.343Z,0.00
2023-01-02T03:13:13.784Z,0.00
2023-01-02T03:14:13.712Z,0.00
2023-01-02T03:15:13.786Z,0.00
2023-01-02T03:16:14.028Z,0.00
2023-01-02T03:17:13.100Z,0.00
2023-01-02T03:18:12.981Z,0.00
2023-01-02T03:19:13.366Z,0.00
2023-01-02T03:20:13.437Z,0.00
2023-01-02T03:21:13.493Z,0.00
2023-01-02T03:22:13.410Z,0.00
2023-01-02T03:23:13.262Z,0.00
2023-01-02T03:24:13.143Z,0.00
2023-01-02T03:25:13.475Z,0.00
2023-01-02T03:26:13.437Z,0.00
2023-01-02T03:27:13.471Z,0.00
2023-01-02T03:28:13.748Z,0.00
2023-01-02T03:29:13.613Z,0.00
2023-01-02T03:30:13.510Z,0.00
2023-01-02T03:31:13.592Z,0.00
2023-01-02T03:32:13.537Z,0.00
2023-01-02T03:33:13.572Z,0.00
2023-01-02T03:34:13.762Z,0.00
2023-01-02T03:35:13.676Z,0.00
2023-01-02T03:36:13.629Z,0.00
2023-01-02T03:37:13.540Z,0.00
2023-01-02T03:38:13.775Z,0.00
2023-01-02T03:39:13.676Z,0.00
2023-01-02T03:40:13.735Z,0.00
2023-01-02T03:41:13.789Z,0.00
2023-01-02T03:42:13.726Z,0.00
2023-01-02T03:43:13.635Z,0.00
2023-01-02T03:44:14.092Z,0.00
2023-01-02T03:45:13.228Z,0.00
2023-01-02T03:46:13.294Z,0.00
2023-01-02T03:47:13.927Z,0.00
2023-01-02T03:48:13.029Z,0.00
2023-01-02T03:49:13.340Z,0.00
2023-01-02T03:50:13.586Z,0.00
2023-01-02T03:51:14.741Z,0.00
2023-01-02T03:52:13.820Z,0.00
2023-01-02T03:53:13.780Z,0.00
2023-01-02T03:54:13.889Z,0.00
2023-01-02T03:55:13.414Z,0.00
2023-01-02T03:56:13.375Z,0.00
2023-01-02T03:57:13.381Z,0.00
2023-01-02T03:58:13.492Z,0.00
2023-01-02T03:59:13.410Z,0.00
2023-01-02T04:00:13.409Z,0.00
2023-01-02T04:01:14.504Z,0.00
2023-01-02T04:02:14.141Z,0.00
2023-01-02T04:03:13.463Z,0.00
2023-01-02T04:04:14.425Z,0.00
2023-01-02T04:05:13.379Z,0.00
2023-01-02T04:06:13.578Z,0.00
2023-01-02T04:07:13.776Z,0.00
2023-01-02T04:08:13.751Z,0.00
2023-01-02T04:09:13.709Z,0.00
2023-01-02T04:10:18.647Z,0.00
2023-01-02T04:11:13.616Z,0.00
2023-01-02T04:12:13.825Z,0.00
2023-01-02T04:13:13.795Z,0.00
2023-01-02T04:14:13.873Z,0.00
2023-01-02T04:15:13.921Z,0.00
2023-01-02T04:16:13.120Z,0.00
2023-01-02T04:17:13.063Z,0.00
2023-01-02T04:18:13.025Z,0.00
2023-01-02T04:19:12.924Z,0.00
2023-01-02T04:20:12.824Z,0.00
2023-01-02T04:21:13.785Z,0.00
2023-01-02T04:22:13.677Z,0.00
2023-01-02T04:23:13.754Z,0.00
2023-01-02T04:24:13.736Z,0.00
2023-01-02T04:25:13.825Z,0.00
2023-01-02T04:26:14.122Z,0.00
2023-01-02T04:27:12.967Z,0.00
2023-01-02T04:28:12.960Z,0.00
2023-01-02T04:29:12.832Z,0.00
2023-01-02T04:30:14.056Z,0.00
2023-01-02T04:31:13.041Z,0.00
2023-01-02T04:32:12.956Z,0.00
2023-01-02T04:33:12.874Z,0.00
2023-01-02T04:34:14.148Z,0.00
2023-01-02T04:35:13.132Z,0.00
2023-01-02T04:36:13.143Z,0.00
2023-01-02T04:37:13.079Z,0.00
2023-01-02T04:38:13.103Z,0.00
2023-01-02T04:39:13.082Z,0.00
2023-01-02T04:40:13.025Z,0.00
2023-01-02T04:41:12.902Z,0.00
2023-01-02T04:42:12.870Z,0.00
2023-01-02T04:43:13.786Z,0.00
2023-01-02T04:44:13.735Z,0.00
2023-01-02T04:45:14.235Z,0.00
2023-01-02T04:46:13.202Z,0.00
2023-01-02T04:47:18.227Z,0.00
2023-01-02T04:48:13.552Z,0.00
2023-01-02T04:49:13.431Z,0.00
2023-01-02T04:50:13.365Z,0.00
2023-01-02T04:51:13.327Z,0.00
2023-01-02T04:52:13.348Z,0.00
2023-01-02T04:53:14.146Z,0.00
2023-01-02T04:54:13.052Z,0.00
2023-01-02T04:55:13.032Z,0.00
2023-01-02T04:56:12.996Z,0.00
2023-01-02T04:57:12.925Z,0.00
2023-01-02T04:58:13.151Z,0.00
2023-01-02T04:59:13.333Z,0.00
2023-01-02T05:00:13.216Z,0.00
2023-01-02T05:01:13.360Z,0.00
2023-01-02T05:02:13.559Z,0.00
2023-01-02T05:03:13.567Z,0.00
2023-01-02T05:04:13.715Z,0.00
2023-01-02T05:05:13.644Z,0.00
2023-01-02T05:06:13.617Z,0.00
2023-01-02T05:07:13.791Z,0.00
2023-01-02T05:08:16.309Z,0.00
2023-01-02T05:09:14.081Z,0.00
2023-01-02T05:10:14.146Z,0.00
2023-01-02T05:11:13.033Z,0.00
2023-01-02T05:12:12.965Z,0.00
2023-01-02T05:13:12.888Z,0.00
2023-01-02T05:14:12.789Z,0.00
2023-01-02T05:15:14.038Z,0.00
2023-01-02T05:16:12.958Z,0.00
2023-01-02T05:17:12.878Z,0.00
2023-01-02T05:18:12.869Z,0.00
2023-01-02T05:19:13.771Z,0.00
2023-01-02T05:20:13.736Z,0.00
2023-01-02T05:21:13.959Z,0.00
2023-01-02T05:22:12.904Z,0.00
2023-01-02T05:23:13.092Z,0.00
2023-01-02T05:24:13.252Z,0.00
2023-01-02T05:25:13.506Z,0.00
2023-01-02T05:26:13.636Z,0.00
2023-01-02T05:27:13.748Z,0.00
2023-01-02T05:28:13.723Z,0.00
2023-01-02T05:29:13.704Z,0.00
2023-01-02T05:30:13.887Z,0.00
2023-01-02T05:31:13.113Z,0.00
2023-01-02T05:32:13.542Z,0.00
2023-01-02T05:33:13.553Z,0.00
2023-01-02T05:34:13.577Z,0.00
2023-01-02T05:35:13.643Z,0.00
2023-01-02T05:36:13.652Z,0.00
2023-01-02T05:37:13.617Z,0.00
2023-01-02T05:38:13.806Z,0.00
2023-01-02T05:39:14.092Z,0.00
2023-01-02T05:40:13.003Z,0.00
2023-01-02T05:41:13.168Z,0.00
2023-01-02T05:42:13.170Z,0.00
2023-01-02T05:43:13.168Z,0.00
2023-01-02T05:44:13.243Z,0.00
2023-01-02T05:45:13.321Z,0.00
2023-01-02T05:46:13.445Z,0.00
2023-01-02T05:47:16.426Z,0.00
2023-01-02T05:48:13.866Z,0.00
2023-01-02T05:49:13.787Z,0.00
2023-01-02T05:50:13.691Z,0.00
2023-01-02T05:51:13.642Z,0.00
2023-01-02T05:52:13.614Z,0.00
2023-01-02T05:53:14.012Z,0.00
2023-01-02T05:54:12.835Z,0.00
2023-01-02T05:55:13.859Z,0.00
2023-01-02T05:56:14.082Z,0.00
2023-01-02T05:57:13.049Z,0.00
2023-01-02T05:58:13.095Z,0.00
2023-01-02T05:59:13.020Z,0.00
2023-01-02T06:00:13.123Z,0.00
2023-01-02T06:01:13.276Z,0.00
2023-01-02T06:02:13.712Z,0.00
2023-01-02T06:03:13.936Z,0.00
2023-01-02T06:04:19.328Z,0.00
2023-01-02T06:05:14.041Z,0.00
2023-01-02T06:06:13.004Z,0.00
2023-01-02T06:07:12.941Z,0.00
2023-01-02T06:08:12.881Z,0.00
2023-01-02T06:09:13.835Z,0.00
2023-01-02T06:10:13.707Z,0.00
2023-01-02T06:11:13.912Z,0.00
2023-01-02T06:12:12.880Z,0.00
2023-01-02T06:13:13.320Z,0.00
2023-01-02T06:14:13.383Z,0.00
2023-01-02T06:15:13.347Z,0.00
2023-01-02T06:16:13.601Z,0.00
2023-01-02T06:17:13.644Z,0.00
2023-01-02T06:18:13.572Z,0.00
2023-01-02T06:19:13.731Z,0.00
2023-01-02T06:20:13.797Z,0.00
2023-01-02T06:21:13.762Z,0.00
2023-01-02T06:22:13.702Z,0.00
2023-01-02T06:23:13.987Z,0.00
2023-01-02T06:24:12.910Z,0.00
2023-01-02T06:25:12.778Z,0.00
2023-01-02T06:26:13.756Z,0.00
2023-01-02T06:27:13.786Z,0.00
2023-01-02T06:28:13.740Z,0.00
2023-01-02T06:29:13.689Z,0.00
2023-01-02T06:30:13.618Z,0.00
2023-01-02T06:31:13.959Z,0.00
2023-01-02T06:32:13.261Z,0.00
2023-01-02T06:33:13.575Z,0.00
2023-01-02T06:34:13.450Z,0.00
2023-01-02T06:35:13.469Z,0.00
2023-01-02T06:36:13.430Z,0.00
2023-01-02T06:37:13.710Z,0.00
2023-01-02T06:38:13.674Z,0.00
2023-01-02T06:39:53.254Z,0.00
2023-01-02T06:40:13.298Z,0.00
2023-01-02T06:41:13.110Z,0.00
2023-01-02T06:42:13.010Z,0.00
2023-01-02T06:43:12.985Z,0.00
2023-01-02T06:44:12.936Z,0.00
2023-01-02T06:45:18.053Z,0.00
2023-01-02T06:46:13.078Z,0.00
2023-01-02T06:47:13.130Z,0.00
2023-01-02T06:48:13.198Z,0.00
2023-01-02T06:49:13.472Z,0.00
2023-01-02T06:50:13.468Z,0.00
2023-01-02T06:51:13.659Z,0.00
2023-01-02T06:52:13.990Z,0.00
2023-01-02T06:53:12.914Z,0.00
2023-01-02T06:54:12.862Z,0.00
2023-01-02T06:55:13.807Z,0.00
2023-01-02T06:56:13.960Z,0.00
2023-01-02T06:57:13.132Z,0.00
2023-01-02T06:58:17.592Z,0.00
2023-01-02T06:59:13.520Z,0.77
2023-01-02T07:00:13.753Z,0.77
2023-01-02T07:01:13.751Z,0.77
2023-01-02T07:02:13.871Z,0.77
2023-01-02T07:03:12.913Z,0.77
2023-01-02T07:04:12.904Z,1.53
2023-01-02T07:05:12.772Z,1.53
2023-01-02T07:06:13.694Z,1.53
2023-01-02T07:07:14.061Z,2.29
2023-01-02T07:08:13.218Z,3.06
2023-01-02T07:40:13.311Z,122.40
2023-01-02T07:41:13.533Z,122.40
2023-01-02T07:42:13.552Z,110.16
2023-01-02T07:43:13.500Z,122.40
2023-01-02T07:44:13.435Z,110.16
2023-01-02T07:45:13.362Z,97.92
2023-01-02T07:46:13.417Z,110.16
2023-01-02T07:47:13.644Z,110.16
2023-01-02T07:48:13.625Z,97.92
2023-01-02T07:49:13.845Z,85.68
2023-01-02T07:50:13.981Z,91.80
2023-01-02T07:51:12.925Z,110.16
2023-01-02T07:52:12.903Z,122.40
2023-01-02T07:53:12.826Z,110.16
2023-01-02T07:54:13.709Z,134.64
2023-01-02T07:55:13.903Z,159.12
2023-01-02T07:56:13.076Z,159.12
2023-01-02T07:57:13.188Z,146.88
2023-01-02T07:58:13.135Z,159.12
2023-01-02T07:59:13.032Z,183.60
2023-01-02T08:00:12.954Z,269.28
2023-01-02T08:01:13.003Z,318.24
2023-01-02T08:02:13.554Z,269.28
2023-01-02T08:03:13.615Z,244.80
2023-01-02T08:04:14.028Z,318.24
2023-01-02T08:05:12.949Z,367.20
2023-01-02T08:06:13.244Z,440.64
2023-01-02T08:07:13.395Z,489.60
2023-01-02T08:08:13.293Z,391.68
2023-01-02T08:09:13.494Z,391.68
2023-01-02T08:10:13.560Z,440.64
2023-01-02T08:11:13.580Z,440.64
2023-01-02T08:12:13.626Z,489.60
2023-01-02T08:13:13.953Z,489.60
2023-01-02T08:14:18.358Z,538.56
2023-01-02T08:15:13.606Z,636.48
2023-01-02T08:16:13.565Z,636.48
2023-01-02T08:17:13.644Z,685.44
2023-01-02T08:18:13.732Z,734.40
2023-01-02T08:19:14.291Z,685.44
2023-01-02T08:20:13.409Z,734.40
2023-01-02T08:21:13.916Z,783.36
2023-01-02T08:22:13.394Z,783.36
2023-01-02T08:23:13.484Z,979.20
2023-01-02T08:24:13.834Z,979.20
2023-01-02T08:25:14.184Z,1175.04
2023-01-02T08:26:13.066Z,1077.12
2023-01-02T08:27:12.995Z,1077.12
2023-01-02T08:28:13.218Z,979.20
2023-01-02T08:29:13.172Z,881.28
2023-01-02T08:30:13.043Z,783.36
2023-01-02T08:31:13.416Z,734.40
2023-01-02T08:32:13.924Z,636.48
2023-01-02T08:33:13.028Z,636.48
2023-01-02T08:34:12.989Z,734.40
2023-01-02T08:35:12.922Z,685.44
2023-01-02T08:36:12.835Z,734.40
2023-01-02T08:37:14.112Z,881.28
2023-01-02T08:38:13.002Z,1175.04
2023-01-02T08:39:12.936Z,1272.96
2023-01-02T08:40:12.849Z,1175.04
2023-01-02T08:41:13.756Z,1272.96
2023-01-02T08:42:13.756Z,1468.80
2023-01-02T08:43:16.191Z,1566.72
2023-01-02T08:44:13.568Z,1762.56
2023-01-02T08:45:13.527Z,1762.56
2023-01-02T08:46:13.832Z,1370.88
2023-01-02T08:47:13.844Z,1077.12
2023-01-02T08:48:20.251Z,1077.12
2023-01-02T08:49:13.479Z,1370.88
2023-01-02T08:50:13.557Z,1272.96
2023-01-02T08:51:13.693Z,1175.04
2023-01-02T08:52:13.589Z,1566.72
2023-01-02T08:53:13.887Z,1566.72
2023-01-02T08:54:12.900Z,979.20
2023-01-02T08:55:13.002Z,636.48
2023-01-02T08:56:13.008Z,783.36
2023-01-02T08:57:13.176Z,1958.40
2023-01-02T08:58:13.319Z,2741.76
2023-01-02T08:59:13.365Z,2937.60
2023-01-02T09:00:13.291Z,3133.44
2023-01-02T09:01:13.575Z,3133.44
2023-01-02T09:02:14.124Z,2937.60
2023-01-02T09:03:13.203Z,2937.60
2023-01-02T09:04:13.925Z,2545.92
2023-01-02T09:05:13.315Z,2741.76
2023-01-02T09:06:18.112Z,2741.76
2023-01-02T09:07:13.803Z,2937.60
2023-01-02T09:08:14.263Z,2741.76
2023-01-02T09:09:13.248Z,2741.76
2023-01-02T09:10:13.358Z,2741.76
2023-01-02T09:11:13.594Z,2741.76
2023-01-02T09:12:13.599Z,2545.92
2023-01-02T09:13:13.485Z,2545.92
2023-01-02T09:14:13.709Z,2545.92
2023-01-02T09:15:13.957Z,2741.76
2023-01-02T09:16:13.158Z,2741.76
2023-01-02T09:17:13.227Z,2741.76
2023-01-02T09:18:13.265Z,2350.08
2023-01-02T09:19:13.351Z,2154.24
2023-01-02T09:20:13.346Z,2545.92
2023-01-02T09:21:13.435Z,2350.08
2023-01-02T09:22:13.336Z,2350.08
2023-01-02T09:23:13.542Z,1762.56
2023-01-02T09:24:13.381Z,1272.96
2023-01-02T09:25:15.503Z,636.48
2023-01-02T09:26:12.999Z,881.28
2023-01-02T09:27:13.169Z,636.48
2023-01-02T09:28:13.094Z,440.64
2023-01-02T09:29:13.005Z,489.60
2023-01-02T09:30:13.261Z,881.28
2023-01-02T09:31:13.260Z,979.20
2023-01-02T09:32:13.449Z,2350.08
2023-01-02T09:33:13.407Z,2741.76
2023-01-02T09:34:13.309Z,2350.08
2023-01-02T09:35:13.552Z,2741.76
2023-01-02T09:36:13.482Z,2937.60
2023-01-02T09:37:13.401Z,2937.60
2023-01-02T09:38:13.490Z,3133.44
2023-01-02T09:39:13.411Z,3133.44
2023-01-02T09:40:13.338Z,3525.12
2023-01-02T09:41:13.627Z,3916.80
2023-01-02T09:42:13.582Z,3916.80
2023-01-02T09:43:13.611Z,4308.48
2023-01-02T09:44:13.553Z,4700.16
2023-01-02T09:45:13.492Z,4308.48
2023-01-02T09:46:13.491Z,4700.16
2023-01-02T09:47:13.458Z,4700.16
2023-01-02T09:48:13.556Z,4700.16
2023-01-02T09:49:13.463Z,5091.84
2023-01-02T09:50:13.277Z,5091.84
2023-01-02T09:51:13.265Z,5091.84
2023-01-02T09:52:13.119Z,5091.84
2023-01-02T09:53:13.369Z,5091.84
2023-01-02T09:54:13.653Z,5483.52
2023-01-02T09:55:13.625Z,6266.88
2023-01-02T09:56:19.346Z,6266.88
2023-01-02T09:57:13.526Z,6266.88
2023-01-02T09:58:13.528Z,6266.88
2023-01-02T09:59:13.684Z,6266.88
2023-01-02T10:00:13.911Z,6266.88
2023-01-02T10:01:12.918Z,6266.88
2023-01-02T10:02:12.931Z,5875.20
2023-01-02T10:03:13.284Z,5091.84
2023-01-02T10:04:13.265Z,4700.16
2023-01-02T10:05:13.339Z,4308.48
2023-01-02T10:06:13.343Z,3525.12
2023-01-02T10:07:13.291Z,3525.12
2023-01-02T10:08:13.348Z,3525.12
2023-01-02T10:09:13.424Z,3133.44
2023-01-02T10:10:13.370Z,3133.44
2023-01-02T10:11:13.329Z,3916.80
2023-01-02T10:12:13.238Z,3525.12
2023-01-02T10:13:13.154Z,2937.60
2023-01-02T10:14:20.796Z,2937.60
2023-01-02T10:15:13.122Z,2350.08
2023-01-02T10:16:13.353Z,2545.92
2023-01-02T10:17:13.235Z,2545.92
2023-01-02T10:18:13.451Z,2154.24
2023-01-02T10:19:13.363Z,2154.24
2023-01-02T10:20:15.643Z,1762.56
2023-01-02T10:21:12.828Z,1958.40
2023-01-02T10:22:14.666Z,2545.92
2023-01-02T10:23:13.905Z,3525.12
2023-01-02T10:24:12.972Z,3916.80
2023-01-02T10:25:13.275Z,3916.80
2023-01-02T10:26:13.552Z,4308.48
2023-01-02T10:27:13.710Z,4700.16
2023-01-02T10:28:14.080Z,4700.16
2023-01-02T10:29:13.136Z,4700.16
2023-01-02T10:30:12.946Z,4700.16
2023-01-02T10:31:12.847Z,4700.16
2023-01-02T10:32:12.755Z,4700.16
2023-01-02T10:33:13.984Z,4700.16
2023-01-02T10:34:13.247Z,4700.16
2023-01-02T10:35:13.221Z,4308.48
2023-01-02T10:36:13.180Z,4308.48
2023-01-02T10:37:13.478Z,3916.80
2023-01-02T10:38:13.727Z,3916.80
2023-01-02T10:39:13.724Z,4308.48
2023-01-02T10:40:13.625Z,4308.48
2023-01-02T10:41:13.702Z,4308.48
2023-01-02T10:42:15.108Z,4308.48
2023-01-02T10:43:13.307Z,4308.48
2023-01-02T10:44:13.571Z,4308.48
2023-01-02T10:45:13.856Z,3916.80
2023-01-02T10:46:13.949Z,3916.80
2023-01-02T10:47:13.133Z,3916.80
2023-01-02T10:48:13.365Z,4308.48
2023-01-02T10:49:13.436Z,4308.48
2023-01-02T10:50:13.330Z,3525.12
2023-01-02T10:51:13.263Z,2937.60
2023-01-02T10:52:13.370Z,2741.76
2023-01-02T10:53:13.421Z,2741.76
2023-01-02T10:54:13.241Z,2545.92
2023-01-02T10:55:13.173Z,2350.08
2023-01-02T10:56:13.416Z,1958.40
2023-01-02T10:57:13.394Z,2154.24
2023-01-02T10:58:13.305Z,2154.24
2023-01-02T10:59:13.367Z,2741.76
2023-01-02T11:00:13.256Z,2937.60
2023-01-02T11:01:13.651Z,2937.60
2023-01-02T11:02:13.479Z,2545.92
2023-01-02T11:03:13.789Z,3916.80
2023-01-02T11:04:13.783Z,4700.16
2023-01-02T11:05:13.822Z,5875.20
2023-01-02T11:06:25.940Z,5483.52
2023-01-02T11:07:13.660Z,4700.16
2023-01-02T11:08:13.644Z,3525.12
2023-01-02T11:09:13.717Z,3916.80
2023-01-02T11:10:13.747Z,4308.48
2023-01-02T11:11:13.603Z,4308.48
2023-01-02T11:12:13.725Z,3916.80
2023-01-02T11:13:14.101Z,4308.48
2023-01-02T11:14:13.020Z,4700.16
2023-01-02T11:15:13.128Z,4700.16
2023-01-02T11:16:13.116Z,5091.84
2023-01-02T11:17:13.153Z,5875.20
2023-01-02T11:18:13.080Z,5875.20
2023-01-02T11:19:13.135Z,5091.84
2023-01-02T11:20:13.112Z,4700.16
2023-01-02T11:21:13.082Z,5483.52
2023-01-02T11:22:13.090Z,6266.88
2023-01-02T11:23:13.103Z,6266.88
2023-01-02T11:24:13.467Z,5875.20
2023-01-02T11:25:13.428Z,5875.20
2023-01-02T11:26:13.701Z,6266.88
2023-01-02T11:27:14.007Z,5875.20
2023-01-02T11:28:12.959Z,5091.84
2023-01-02T11:29:13.022Z,5483.52
2023-01-02T11:30:13.204Z,7050.24
2023-01-02T11:31:13.192Z,7050.24
2023-01-02T11:32:13.295Z,7833.60
2023-01-02T11:33:13.406Z,7833.60
2023-01-02T11:34:13.629Z,6266.88
2023-01-02T11:35:13.691Z,5483.52
2023-01-02T11:36:13.665Z,4700.16
2023-01-02T11:37:13.601Z,4308.48
2023-01-02T11:38:13.691Z,5091.84
2023-01-02T11:39:14.253Z,5091.84
2023-01-02T11:40:13.395Z,5091.84
2023-01-02T11:41:13.313Z,5091.84
2023-01-02T11:42:13.440Z,4308.48
2023-01-02T11:43:13.524Z,4308.48
2023-01-02T11:44:18.760Z,4308.48
2023-01-02T11:45:13.416Z,4308.48
2023-01-02T11:46:13.366Z,4700.16
2023-01-02T11:47:13.588Z,5091.84
2023-01-02T11:48:13.711Z,5091.84
2023-01-02T11:49:14.805Z,4700.16
2023-01-02T11:50:13.750Z,4308.48
2023-01-02T11:51:17.490Z,3916.80
2023-01-02T11:52:14.661Z,4700.16
2023-01-02T11:53:13.563Z,5483.52
2023-01-02T11:54:13.451Z,5483.52
2023-01-02T11:55:14.021Z,5875.20
2023-01-02T11:56:13.249Z,5091.84
2023-01-02T11:57:18.548Z,4700.16
2023-01-02T11:58:12.971Z,4308.48
2023-01-02T11:59:13.722Z,4308.48
2023-01-02T12:00:13.694Z,5091.84
2023-01-02T12:01:13.881Z,5483.52
2023-01-02T12:02:12.977Z,5483.52
2023-01-02T12:03:18.325Z,5091.84
2023-01-02T12:04:13.703Z,5091.84
2023-01-02T12:05:13.658Z,5483.52
2023-01-02T12:06:13.585Z,5091.84
2023-01-02T12:07:13.745Z,5091.84
2023-01-02T12:08:13.738Z,5091.84
2023-01-02T12:09:14.137Z,5091.84
2023-01-02T12:10:13.215Z,5875.20
2023-01-02T12:11:13.144Z,5483.52
2023-01-02T12:12:13.159Z,5091.84
2023-01-02T12:13:13.430Z,3916.80
2023-01-02T12:14:13.502Z,3525.12
2023-01-02T12:15:13.700Z,3916.80
2023-01-02T12:16:14.146Z,4308.48
2023-01-02T12:17:13.139Z,4308.48
2023-01-02T12:18:13.207Z,4700.16
2023-01-02T12:19:13.295Z,4308.48
2023-01-02T12:20:13.264Z,4308.48
2023-01-02T12:21:13.137Z,4308.48
2023-01-02T12:22:13.189Z,4308.48
2023-01-02T12:23:13.253Z,4308.48
2023-01-02T12:24:13.428Z,3525.12
2023-01-02T12:25:13.378Z,3916.80
2023-01-02T12:26:13.407Z,3916.80
2023-01-02T12:27:13.388Z,3916.80
2023-01-02T12:28:13.651Z,3525.12
2023-01-02T12:29:13.667Z,3133.44
2023-01-02T12:30:13.787Z,3525.12
2023-01-02T12:31:13.848Z,3525.12
2023-01-02T12:32:14.000Z,4308.48
2023-01-02T12:33:13.040Z,5483.52
2023-01-02T12:34:13.154Z,5483.52
2023-01-02T12:35:13.820Z,5875.20
2023-01-02T12:36:13.799Z,5875.20
2023-01-02T12:37:14.176Z,6266.88
2023-01-02T12:38:15.944Z,5875.20
2023-01-02T12:39:13.692Z,5091.84
2023-01-02T12:40:14.009Z,4308.48
2023-01-02T12:41:13.518Z,4308.48
2023-01-02T12:42:13.801Z,4308.48
2023-01-02T12:43:14.155Z,4308.48
2023-01-02T12:44:13.196Z,3916.80
2023-01-02T12:45:13.287Z,4700.16
2023-01-02T12:46:13.588Z,5091.84
2023-01-02T12:47:13.560Z,4700.16
2023-01-02T12:48:13.517Z,4700.16
2023-01-02T12:49:13.528Z,5091.84
2023-01-02T12:50:13.777Z,5483.52
2023-01-02T12:51:13.706Z,6266.88
2023-01-02T12:52:14.002Z,6266.88
2023-01-02T12:53:12.932Z,5091.84
2023-01-02T12:54:20.259Z,4308.48
2023-01-02T12:55:14.001Z,3916.80
2023-01-02T12:56:13.356Z,3916.80
2023-01-02T12:57:16.991Z,3916.80
2023-01-02T12:58:14.027Z,4308.48
2023-01-02T12:59:13.340Z,3525.12
2023-01-02T13:00:13.355Z,3916.80
2023-01-02T13:01:13.532Z,4308.48
2023-01-02T13:02:14.061Z,4700.16
2023-01-02T13:03:18.558Z,4700.16
2023-01-02T13:04:18.012Z,3916.80
2023-01-02T13:05:13.184Z,3525.12
2023-01-02T13:06:46.046Z,3525.12
2023-01-02T13:07:14.023Z,3525.12
2023-01-02T13:08:13.135Z,3916.80
2023-01-02T13:09:19.950Z,4700.16
2023-01-02T13:10:13.228Z,5091.84
2023-01-02T13:11:13.278Z,5091.84
2023-01-02T13:12:13.237Z,5091.84
2023-01-02T13:13:13.246Z,5483.52
2023-01-02T13:14:13.298Z,6266.88
2023-01-02T13:15:13.383Z,6266.88
2023-01-02T13:16:24.371Z,6266.88
2023-01-02T13:17:13.098Z,5875.20